sensor_id;sensor_type;location;lat;lon;timestamp;P1;durP1;ratioP1;P2;durP2;ratioP2
53833;SDS011;39735;51.432;5.482;2023-08-12T00:02:48;28.67;;;9.23;;
53833;SDS011;39735;51.432;5.482;2023-08-12T00:06:12;17.85;;;9.40;;
53833;SDS011;39735;51.432;5.482;2023-08-12T00:09:36;18.65;;;9.55;;
53833;SDS011;39735;51.432;5.482;2023-08-12T00:13:00;17.52;;;10.10;;
53833;SDS011;39735;51.432;5.482;2023-08-12T00:16:24;31.73;;;9.38;;
53833;SDS011;39735;51.432;5.482;2023-08-12T00:19:48;22.88;;;11.30;;
53833;SDS011;39735;51.432;5.482;2023-08-12T00:23:11;28.58;;;13.35;;
53833;SDS011;39735;51.432;5.482;2023-08-12T00:26:35;19.75;;;11.00;;
53833;SDS011;39735;51.432;5.482;2023-08-12T00:30:00;22.98;;;11.10;;
53833;SDS011;39735;51.432;5.482;2023-08-12T00:33:24;47.58;;;10.55;;
53833;SDS011;39735;51.432;5.482;2023-08-12T00:36:47;26.15;;;11.10;;
53833;SDS011;39735;51.432;5.482;2023-08-12T00:40:12;29.23;;;13.27;;
53833;SDS011;39735;51.432;5.482;2023-08-12T00:43:36;20.20;;;10.85;;
53833;SDS011;39735;51.432;5.482;2023-08-12T00:47:00;29.67;;;10.00;;
53833;SDS011;39735;51.432;5.482;2023-08-12T00:50:24;21.25;;;11.15;;
53833;SDS011;39735;51.432;5.482;2023-08-12T00:53:48;10.83;;;9.67;;
53833;SDS011;39735;51.432;5.482;2023-08-12T00:57:14;18.02;;;10.50;;
53833;SDS011;39735;51.432;5.482;2023-08-12T01:00:38;14.88;;;10.93;;
53833;SDS011;39735;51.432;5.482;2023-08-12T01:04:03;22.88;;;10.30;;
53833;SDS011;39735;51.432;5.482;2023-08-12T01:07:27;19.27;;;10.43;;
53833;SDS011;39735;51.432;5.482;2023-08-12T01:10:54;17.77;;;8.85;;
53833;SDS011;39735;51.432;5.482;2023-08-12T01:14:23;38.05;;;10.00;;
53833;SDS011;39735;51.432;5.482;2023-08-12T01:17:50;20.30;;;8.73;;
53833;SDS011;39735;51.432;5.482;2023-08-12T01:21:15;17.90;;;8.32;;
53833;SDS011;39735;51.432;5.482;2023-08-12T01:24:40;21.35;;;8.10;;
53833;SDS011;39735;51.432;5.482;2023-08-12T01:28:04;17.75;;;8.02;;
53833;SDS011;39735;51.432;5.482;2023-08-12T01:31:32;15.25;;;7.18;;
53833;SDS011;39735;51.432;5.482;2023-08-12T01:35:07;13.35;;;7.45;;
53833;SDS011;39735;51.432;5.482;2023-08-12T01:38:38;25.25;;;9.50;;
53833;SDS011;39735;51.432;5.482;2023-08-12T01:42:02;10.82;;;7.75;;
53833;SDS011;39735;51.432;5.482;2023-08-12T01:45:29;17.70;;;8.32;;
53833;SDS011;39735;51.432;5.482;2023-08-12T01:48:53;18.98;;;7.70;;
53833;SDS011;39735;51.432;5.482;2023-08-12T01:52:17;28.10;;;7.68;;
53833;SDS011;39735;51.432;5.482;2023-08-12T01:55:44;12.15;;;5.82;;
53833;SDS011;39735;51.432;5.482;2023-08-12T01:59:08;13.65;;;6.78;;
53833;SDS011;39735;51.432;5.482;2023-08-12T02:02:32;16.35;;;7.68;;
53833;SDS011;39735;51.432;5.482;2023-08-12T02:05:56;13.05;;;7.70;;
53833;SDS011;39735;51.432;5.482;2023-08-12T02:09:20;16.02;;;7.75;;
53833;SDS011;39735;51.432;5.482;2023-08-12T02:12:44;23.50;;;7.05;;
53833;SDS011;39735;51.432;5.482;2023-08-12T02:16:08;17.15;;;8.00;;
53833;SDS011;39735;51.432;5.482;2023-08-12T02:19:32;20.77;;;7.70;;
53833;SDS011;39735;51.432;5.482;2023-08-12T02:22:56;19.17;;;8.10;;
53833;SDS011;39735;51.432;5.482;2023-08-12T02:26:20;15.10;;;8.18;;
53833;SDS011;39735;51.432;5.482;2023-08-12T02:29:44;11.38;;;7.15;;
53833;SDS011;39735;51.432;5.482;2023-08-12T02:33:08;24.17;;;7.55;;
53833;SDS011;39735;51.432;5.482;2023-08-12T02:36:32;16.60;;;8.25;;
53833;SDS011;39735;51.432;5.482;2023-08-12T02:39:57;26.15;;;8.02;;
53833;SDS011;39735;51.432;5.482;2023-08-12T02:43:21;32.90;;;7.80;;
53833;SDS011;39735;51.432;5.482;2023-08-12T02:46:44;10.43;;;6.22;;
53833;SDS011;39735;51.432;5.482;2023-08-12T02:50:08;16.40;;;7.35;;
53833;SDS011;39735;51.432;5.482;2023-08-12T02:53:32;26.95;;;9.50;;
53833;SDS011;39735;51.432;5.482;2023-08-12T02:56:56;18.23;;;7.10;;
53833;SDS011;39735;51.432;5.482;2023-08-12T03:00:20;14.02;;;6.03;;
53833;SDS011;39735;51.432;5.482;2023-08-12T03:03:45;31.80;;;7.00;;
53833;SDS011;39735;51.432;5.482;2023-08-12T03:07:09;7.10;;;6.40;;
53833;SDS011;39735;51.432;5.482;2023-08-12T03:10:33;21.35;;;7.22;;
53833;SDS011;39735;51.432;5.482;2023-08-12T03:13:57;14.43;;;6.30;;
53833;SDS011;39735;51.432;5.482;2023-08-12T03:17:21;18.52;;;7.25;;
53833;SDS011;39735;51.432;5.482;2023-08-12T03:20:45;12.48;;;6.38;;
53833;SDS011;39735;51.432;5.482;2023-08-12T03:24:09;13.02;;;7.55;;
53833;SDS011;39735;51.432;5.482;2023-08-12T03:27:33;13.95;;;6.50;;
53833;SDS011;39735;51.432;5.482;2023-08-12T03:30:56;14.23;;;7.22;;
53833;SDS011;39735;51.432;5.482;2023-08-12T03:34:20;10.88;;;6.65;;
53833;SDS011;39735;51.432;5.482;2023-08-12T03:37:44;7.72;;;5.85;;
53833;SDS011;39735;51.432;5.482;2023-08-12T03:41:08;11.02;;;6.82;;
53833;SDS011;39735;51.432;5.482;2023-08-12T03:44:32;14.52;;;6.82;;
53833;SDS011;39735;51.432;5.482;2023-08-12T03:47:56;16.52;;;6.47;;
53833;SDS011;39735;51.432;5.482;2023-08-12T03:51:20;11.82;;;5.35;;
53833;SDS011;39735;51.432;5.482;2023-08-12T03:54:43;20.85;;;6.05;;
53833;SDS011;39735;51.432;5.482;2023-08-12T03:58:07;17.80;;;6.95;;
53833;SDS011;39735;51.432;5.482;2023-08-12T04:01:31;17.92;;;6.13;;
53833;SDS011;39735;51.432;5.482;2023-08-12T04:04:55;12.43;;;6.32;;
53833;SDS011;39735;51.432;5.482;2023-08-12T04:08:20;15.45;;;7.07;;
53833;SDS011;39735;51.432;5.482;2023-08-12T04:11:45;16.98;;;7.63;;
53833;SDS011;39735;51.432;5.482;2023-08-12T04:15:09;18.88;;;8.43;;
53833;SDS011;39735;51.432;5.482;2023-08-12T04:18:33;24.15;;;6.68;;
53833;SDS011;39735;51.432;5.482;2023-08-12T04:21:56;22.40;;;7.13;;
53833;SDS011;39735;51.432;5.482;2023-08-12T04:25:21;11.30;;;6.50;;
53833;SDS011;39735;51.432;5.482;2023-08-12T04:28:45;11.63;;;7.70;;
53833;SDS011;39735;51.432;5.482;2023-08-12T04:32:10;10.27;;;7.15;;
53833;SDS011;39735;51.432;5.482;2023-08-12T04:35:34;30.15;;;8.00;;
53833;SDS011;39735;51.432;5.482;2023-08-12T04:38:58;19.92;;;7.50;;
53833;SDS011;39735;51.432;5.482;2023-08-12T04:42:22;20.65;;;7.57;;
53833;SDS011;39735;51.432;5.482;2023-08-12T04:45:46;16.85;;;8.45;;
53833;SDS011;39735;51.432;5.482;2023-08-12T04:49:10;8.57;;;7.22;;
53833;SDS011;39735;51.432;5.482;2023-08-12T04:52:34;20.10;;;7.40;;
53833;SDS011;39735;51.432;5.482;2023-08-12T04:55:57;13.88;;;6.60;;
53833;SDS011;39735;51.432;5.482;2023-08-12T04:59:21;19.05;;;6.05;;
53833;SDS011;39735;51.432;5.482;2023-08-12T05:02:45;12.38;;;5.47;;
53833;SDS011;39735;51.432;5.482;2023-08-12T05:06:09;16.58;;;6.53;;
53833;SDS011;39735;51.432;5.482;2023-08-12T05:09:33;12.00;;;5.55;;
53833;SDS011;39735;51.432;5.482;2023-08-12T05:12:57;14.13;;;6.18;;
53833;SDS011;39735;51.432;5.482;2023-08-12T05:16:21;23.20;;;6.68;;
53833;SDS011;39735;51.432;5.482;2023-08-12T05:19:45;12.57;;;5.50;;
53833;SDS011;39735;51.432;5.482;2023-08-12T05:23:09;12.95;;;5.18;;
53833;SDS011;39735;51.432;5.482;2023-08-12T05:26:33;13.63;;;5.97;;
53833;SDS011;39735;51.432;5.482;2023-08-12T05:29:57;14.27;;;4.20;;
53833;SDS011;39735;51.432;5.482;2023-08-12T05:33:21;7.72;;;4.60;;
53833;SDS011;39735;51.432;5.482;2023-08-12T05:36:45;11.63;;;5.40;;
53833;SDS011;39735;51.432;5.482;2023-08-12T05:40:09;7.68;;;5.07;;
53833;SDS011;39735;51.432;5.482;2023-08-12T05:43:33;5.40;;;4.15;;
53833;SDS011;39735;51.432;5.482;2023-08-12T05:46:57;16.83;;;4.28;;
53833;SDS011;39735;51.432;5.482;2023-08-12T05:50:22;5.63;;;3.27;;
53833;SDS011;39735;51.432;5.482;2023-08-12T05:53:45;5.80;;;4.50;;
53833;SDS011;39735;51.432;5.482;2023-08-12T05:57:09;3.08;;;2.95;;
53833;SDS011;39735;51.432;5.482;2023-08-12T06:00:33;6.43;;;4.15;;
53833;SDS011;39735;51.432;5.482;2023-08-12T06:03:57;5.55;;;3.80;;
53833;SDS011;39735;51.432;5.482;2023-08-12T06:07:21;7.70;;;4.22;;
53833;SDS011;39735;51.432;5.482;2023-08-12T06:10:45;4.95;;;3.13;;
53833;SDS011;39735;51.432;5.482;2023-08-12T06:14:09;5.00;;;2.83;;
53833;SDS011;39735;51.432;5.482;2023-08-12T06:17:33;9.23;;;3.13;;
53833;SDS011;39735;51.432;5.482;2023-08-12T06:20:57;3.03;;;2.53;;
53833;SDS011;39735;51.432;5.482;2023-08-12T06:24:21;3.85;;;3.15;;
53833;SDS011;39735;51.432;5.482;2023-08-12T06:27:45;14.38;;;2.83;;
53833;SDS011;39735;51.432;5.482;2023-08-12T06:31:09;3.92;;;2.60;;
53833;SDS011;39735;51.432;5.482;2023-08-12T06:34:33;2.72;;;2.53;;
53833;SDS011;39735;51.432;5.482;2023-08-12T06:37:57;6.25;;;2.78;;
53833;SDS011;39735;51.432;5.482;2023-08-12T06:41:21;2.28;;;2.03;;
53833;SDS011;39735;51.432;5.482;2023-08-12T06:44:45;1.88;;;1.63;;
53833;SDS011;39735;51.432;5.482;2023-08-12T06:48:09;5.93;;;2.28;;
53833;SDS011;39735;51.432;5.482;2023-08-12T06:51:33;7.95;;;2.42;;
53833;SDS011;39735;51.432;5.482;2023-08-12T06:54:56;8.82;;;2.42;;
53833;SDS011;39735;51.432;5.482;2023-08-12T06:58:20;1.65;;;1.55;;
53833;SDS011;39735;51.432;5.482;2023-08-12T07:01:44;3.83;;;2.72;;
53833;SDS011;39735;51.432;5.482;2023-08-12T07:05:08;2.72;;;2.10;;
53833;SDS011;39735;51.432;5.482;2023-08-12T07:08:32;3.65;;;2.30;;
53833;SDS011;39735;51.432;5.482;2023-08-12T07:11:56;2.22;;;2.13;;
53833;SDS011;39735;51.432;5.482;2023-08-12T07:15:20;12.23;;;2.58;;
53833;SDS011;39735;51.432;5.482;2023-08-12T07:18:44;11.70;;;3.28;;
53833;SDS011;39735;51.432;5.482;2023-08-12T07:22:07;10.32;;;2.85;;
53833;SDS011;39735;51.432;5.482;2023-08-12T07:25:31;10.23;;;3.38;;
53833;SDS011;39735;51.432;5.482;2023-08-12T07:28:56;18.75;;;3.08;;
53833;SDS011;39735;51.432;5.482;2023-08-12T07:32:20;7.97;;;2.78;;
53833;SDS011;39735;51.432;5.482;2023-08-12T07:35:44;3.57;;;2.60;;
53833;SDS011;39735;51.432;5.482;2023-08-12T07:39:09;3.40;;;1.83;;
53833;SDS011;39735;51.432;5.482;2023-08-12T07:42:34;2.38;;;1.90;;
53833;SDS011;39735;51.432;5.482;2023-08-12T07:45:58;3.20;;;1.40;;
53833;SDS011;39735;51.432;5.482;2023-08-12T07:49:22;5.15;;;1.70;;
53833;SDS011;39735;51.432;5.482;2023-08-12T07:52:46;4.10;;;2.03;;
53833;SDS011;39735;51.432;5.482;2023-08-12T07:56:10;1.63;;;1.60;;
53833;SDS011;39735;51.432;5.482;2023-08-12T07:59:34;2.38;;;1.95;;
53833;SDS011;39735;51.432;5.482;2023-08-12T08:02:58;8.20;;;1.85;;
53833;SDS011;39735;51.432;5.482;2023-08-12T08:06:22;12.63;;;1.95;;
53833;SDS011;39735;51.432;5.482;2023-08-12T08:09:46;2.23;;;1.90;;
53833;SDS011;39735;51.432;5.482;2023-08-12T08:13:10;1.95;;;1.30;;
53833;SDS011;39735;51.432;5.482;2023-08-12T08:16:34;7.45;;;1.48;;
53833;SDS011;39735;51.432;5.482;2023-08-12T08:19:58;5.07;;;1.30;;
53833;SDS011;39735;51.432;5.482;2023-08-12T08:23:22;3.90;;;1.70;;
53833;SDS011;39735;51.432;5.482;2023-08-12T08:26:44;10.93;;;2.25;;
53833;SDS011;39735;51.432;5.482;2023-08-12T08:30:07;10.60;;;0.85;;
53833;SDS011;39735;51.432;5.482;2023-08-12T08:33:31;7.35;;;0.85;;
53833;SDS011;39735;51.432;5.482;2023-08-12T08:36:55;10.32;;;1.10;;
53833;SDS011;39735;51.432;5.482;2023-08-12T08:40:19;6.13;;;0.88;;
53833;SDS011;39735;51.432;5.482;2023-08-12T08:43:43;3.92;;;1.00;;
53833;SDS011;39735;51.432;5.482;2023-08-12T08:47:08;1.23;;;0.80;;
53833;SDS011;39735;51.432;5.482;2023-08-12T08:50:32;2.92;;;1.92;;
53833;SDS011;39735;51.432;5.482;2023-08-12T08:53:57;5.18;;;2.60;;
53833;SDS011;39735;51.432;5.482;2023-08-12T08:57:21;9.18;;;2.50;;
53833;SDS011;39735;51.432;5.482;2023-08-12T09:00:45;4.22;;;3.92;;
53833;SDS011;39735;51.432;5.482;2023-08-12T09:04:09;5.75;;;3.17;;
53833;SDS011;39735;51.432;5.482;2023-08-12T09:07:33;7.90;;;3.05;;
53833;SDS011;39735;51.432;5.482;2023-08-12T09:10:58;10.70;;;3.50;;
53833;SDS011;39735;51.432;5.482;2023-08-12T09:17:46;3.85;;;3.75;;
53833;SDS011;39735;51.432;5.482;2023-08-12T09:21:10;3.25;;;3.17;;
53833;SDS011;39735;51.432;5.482;2023-08-12T09:24:34;3.30;;;3.20;;
53833;SDS011;39735;51.432;5.482;2023-08-12T09:28:00;4.35;;;3.70;;
53833;SDS011;39735;51.432;5.482;2023-08-12T09:31:25;2.80;;;2.70;;
53833;SDS011;39735;51.432;5.482;2023-08-12T09:34:53;10.90;;;3.05;;
53833;SDS011;39735;51.432;5.482;2023-08-12T09:38:17;5.70;;;3.15;;
53833;SDS011;39735;51.432;5.482;2023-08-12T09:41:41;4.65;;;1.50;;
53833;SDS011;39735;51.432;5.482;2023-08-12T09:45:09;1.25;;;1.20;;
53833;SDS011;39735;51.432;5.482;2023-08-12T09:48:38;2.08;;;1.10;;
53833;SDS011;39735;51.432;5.482;2023-08-12T09:52:05;6.30;;;1.67;;
53833;SDS011;39735;51.432;5.482;2023-08-12T09:55:29;4.10;;;1.10;;
53833;SDS011;39735;51.432;5.482;2023-08-12T09:58:55;0.75;;;0.73;;
53833;SDS011;39735;51.432;5.482;2023-08-12T10:02:19;1.13;;;1.10;;
53833;SDS011;39735;51.432;5.482;2023-08-12T10:05:43;3.88;;;1.70;;
53833;SDS011;39735;51.432;5.482;2023-08-12T10:09:08;1.80;;;1.63;;
53833;SDS011;39735;51.432;5.482;2023-08-12T10:12:34;0.80;;;0.80;;
53833;SDS011;39735;51.432;5.482;2023-08-12T10:15:58;0.80;;;0.70;;
53833;SDS011;39735;51.432;5.482;2023-08-12T10:19:22;2.17;;;0.95;;
53833;SDS011;39735;51.432;5.482;2023-08-12T10:22:50;3.65;;;1.83;;
53833;SDS011;39735;51.432;5.482;2023-08-12T10:26:15;1.60;;;1.60;;
53833;SDS011;39735;51.432;5.482;2023-08-12T10:29:39;8.90;;;1.77;;
53833;SDS011;39735;51.432;5.482;2023-08-12T10:33:07;7.72;;;2.15;;
53833;SDS011;39735;51.432;5.482;2023-08-12T10:36:31;1.73;;;1.60;;
53833;SDS011;39735;51.432;5.482;2023-08-12T10:39:56;3.75;;;0.98;;
53833;SDS011;39735;51.432;5.482;2023-08-12T10:43:58;8.50;;;1.85;;
53833;SDS011;39735;51.432;5.482;2023-08-12T10:47:22;5.18;;;1.30;;
53833;SDS011;39735;51.432;5.482;2023-08-12T10:50:58;3.53;;;1.47;;
53833;SDS011;39735;51.432;5.482;2023-08-12T10:54:23;20.33;;;3.03;;
53833;SDS011;39735;51.432;5.482;2023-08-12T10:57:52;16.45;;;1.67;;
53833;SDS011;39735;51.432;5.482;2023-08-12T11:01:19;5.97;;;2.97;;
53833;SDS011;39735;51.432;5.482;2023-08-12T11:04:53;4.93;;;1.73;;
53833;SDS011;39735;51.432;5.482;2023-08-12T11:08:23;14.63;;;2.25;;
53833;SDS011;39735;51.432;5.482;2023-08-12T11:11:47;7.10;;;1.10;;
53833;SDS011;39735;51.432;5.482;2023-08-12T11:19:00;7.70;;;3.22;;
53833;SDS011;39735;51.432;5.482;2023-08-12T11:22:24;2.47;;;1.17;;
53833;SDS011;39735;51.432;5.482;2023-08-12T11:25:48;17.63;;;4.07;;
53833;SDS011;39735;51.432;5.482;2023-08-12T11:29:12;8.75;;;2.00;;
53833;SDS011;39735;51.432;5.482;2023-08-12T11:32:38;13.23;;;3.97;;
53833;SDS011;39735;51.432;5.482;2023-08-12T11:36:02;21.88;;;2.25;;
53833;SDS011;39735;51.432;5.482;2023-08-12T11:39:27;13.07;;;2.28;;
53833;SDS011;39735;51.432;5.482;2023-08-12T11:42:52;13.45;;;2.38;;
53833;SDS011;39735;51.432;5.482;2023-08-12T11:46:16;8.30;;;2.70;;
53833;SDS011;39735;51.432;5.482;2023-08-12T11:49:40;41.90;;;3.03;;
53833;SDS011;39735;51.432;5.482;2023-08-12T11:53:04;17.75;;;4.68;;
53833;SDS011;39735;51.432;5.482;2023-08-12T11:56:29;9.98;;;2.45;;
53833;SDS011;39735;51.432;5.482;2023-08-12T12:00:00;10.02;;;2.78;;
53833;SDS011;39735;51.432;5.482;2023-08-12T12:03:27;10.88;;;2.63;;
53833;SDS011;39735;51.432;5.482;2023-08-12T12:06:51;17.98;;;3.55;;
53833;SDS011;39735;51.432;5.482;2023-08-12T12:10:19;24.95;;;3.42;;
53833;SDS011;39735;51.432;5.482;2023-08-12T12:13:43;13.02;;;3.90;;
53833;SDS011;39735;51.432;5.482;2023-08-12T12:17:09;8.13;;;2.53;;
53833;SDS011;39735;51.432;5.482;2023-08-12T12:20:36;41.90;;;3.10;;
53833;SDS011;39735;51.432;5.482;2023-08-12T12:24:07;7.82;;;3.30;;
53833;SDS011;39735;51.432;5.482;2023-08-12T12:27:32;13.93;;;3.22;;
53833;SDS011;39735;51.432;5.482;2023-08-12T12:30:55;21.52;;;3.38;;
53833;SDS011;39735;51.432;5.482;2023-08-12T12:34:19;14.38;;;3.30;;
53833;SDS011;39735;51.432;5.482;2023-08-12T12:37:43;21.50;;;3.78;;
53833;SDS011;39735;51.432;5.482;2023-08-12T12:41:07;20.98;;;4.38;;
53833;SDS011;39735;51.432;5.482;2023-08-12T12:44:31;13.52;;;3.70;;
53833;SDS011;39735;51.432;5.482;2023-08-12T12:47:55;16.27;;;3.78;;
53833;SDS011;39735;51.432;5.482;2023-08-12T12:51:19;18.52;;;3.72;;
53833;SDS011;39735;51.432;5.482;2023-08-12T12:54:43;30.83;;;4.88;;
53833;SDS011;39735;51.432;5.482;2023-08-12T12:57:37;23.23;;;4.68;;
53833;SDS011;39735;51.432;5.482;2023-08-12T13:01:02;20.80;;;5.25;;
53833;SDS011;39735;51.432;5.482;2023-08-12T13:04:26;12.55;;;5.05;;
53833;SDS011;39735;51.432;5.482;2023-08-12T13:07:50;20.67;;;4.90;;
53833;SDS011;39735;51.432;5.482;2023-08-12T13:11:14;16.10;;;3.87;;
53833;SDS011;39735;51.432;5.482;2023-08-12T13:14:38;21.77;;;6.18;;
53833;SDS011;39735;51.432;5.482;2023-08-12T13:18:03;16.23;;;4.13;;
53833;SDS011;39735;51.432;5.482;2023-08-12T13:21:27;25.08;;;3.47;;
53833;SDS011;39735;51.432;5.482;2023-08-12T13:24:51;11.07;;;3.10;;
53833;SDS011;39735;51.432;5.482;2023-08-12T13:28:15;18.83;;;4.28;;
53833;SDS011;39735;51.432;5.482;2023-08-12T13:31:38;22.50;;;3.67;;
53833;SDS011;39735;51.432;5.482;2023-08-12T13:35:03;21.33;;;4.85;;
53833;SDS011;39735;51.432;5.482;2023-08-12T13:38:27;19.60;;;3.90;;
53833;SDS011;39735;51.432;5.482;2023-08-12T13:41:51;17.35;;;4.53;;
53833;SDS011;39735;51.432;5.482;2023-08-12T13:45:09;14.63;;;3.88;;
53833;SDS011;39735;51.432;5.482;2023-08-12T13:48:30;15.07;;;3.53;;
53833;SDS011;39735;51.432;5.482;2023-08-12T13:51:51;19.83;;;5.38;;
53833;SDS011;39735;51.432;5.482;2023-08-12T13:54:56;20.90;;;4.88;;
53833;SDS011;39735;51.432;5.482;2023-08-12T13:58:17;12.35;;;4.00;;
53833;SDS011;39735;51.432;5.482;2023-08-12T14:01:41;22.52;;;4.40;;
53833;SDS011;39735;51.432;5.482;2023-08-12T14:05:08;15.65;;;4.50;;
53833;SDS011;39735;51.432;5.482;2023-08-12T14:08:32;16.42;;;3.47;;
53833;SDS011;39735;51.432;5.482;2023-08-12T14:11:56;10.85;;;3.30;;
53833;SDS011;39735;51.432;5.482;2023-08-12T14:15:20;19.88;;;4.80;;
53833;SDS011;39735;51.432;5.482;2023-08-12T14:18:44;11.02;;;3.42;;
53833;SDS011;39735;51.432;5.482;2023-08-12T14:22:08;15.07;;;4.47;;
53833;SDS011;39735;51.432;5.482;2023-08-12T14:25:33;20.65;;;4.53;;
53833;SDS011;39735;51.432;5.482;2023-08-12T14:28:57;14.13;;;4.32;;
53833;SDS011;39735;51.432;5.482;2023-08-12T14:32:21;14.30;;;4.53;;
53833;SDS011;39735;51.432;5.482;2023-08-12T14:35:48;25.73;;;6.25;;
53833;SDS011;39735;51.432;5.482;2023-08-12T14:39:12;13.27;;;4.63;;
53833;SDS011;39735;51.432;5.482;2023-08-12T14:42:36;20.27;;;6.55;;
53833;SDS011;39735;51.432;5.482;2023-08-12T14:49:25;9.95;;;5.95;;
53833;SDS011;39735;51.432;5.482;2023-08-12T14:52:49;10.55;;;5.05;;
53833;SDS011;39735;51.432;5.482;2023-08-12T14:55:36;27.25;;;7.32;;
53833;SDS011;39735;51.432;5.482;2023-08-12T14:59:00;7.88;;;4.40;;
53833;SDS011;39735;51.432;5.482;2023-08-12T15:02:24;13.85;;;5.50;;
53833;SDS011;39735;51.432;5.482;2023-08-12T15:05:48;14.23;;;4.28;;
53833;SDS011;39735;51.432;5.482;2023-08-12T15:09:12;28.58;;;4.18;;
53833;SDS011;39735;51.432;5.482;2023-08-12T15:12:35;20.63;;;5.68;;
53833;SDS011;39735;51.432;5.482;2023-08-12T15:15:59;10.05;;;2.75;;
53833;SDS011;39735;51.432;5.482;2023-08-12T15:19:23;18.10;;;3.67;;
53833;SDS011;39735;51.432;5.482;2023-08-12T15:22:47;16.13;;;4.93;;
53833;SDS011;39735;51.432;5.482;2023-08-12T15:26:11;29.50;;;3.53;;
53833;SDS011;39735;51.432;5.482;2023-08-12T15:29:35;12.32;;;2.50;;
53833;SDS011;39735;51.432;5.482;2023-08-12T15:32:58;24.20;;;3.65;;
53833;SDS011;39735;51.432;5.482;2023-08-12T15:36:05;9.48;;;1.77;;
53833;SDS011;39735;51.432;5.482;2023-08-12T15:39:13;5.82;;;2.00;;
53833;SDS011;39735;51.432;5.482;2023-08-12T15:42:04;36.33;;;4.50;;
53833;SDS011;39735;51.432;5.482;2023-08-12T15:47:38;30.83;;;2.60;;
53833;SDS011;39735;51.432;5.482;2023-08-12T15:51:02;5.88;;;2.38;;
53833;SDS011;39735;51.432;5.482;2023-08-12T15:54:28;22.08;;;1.80;;
53833;SDS011;39735;51.432;5.482;2023-08-12T15:57:17;6.57;;;1.42;;
53833;SDS011;39735;51.432;5.482;2023-08-12T16:00:43;6.00;;;2.47;;
53833;SDS011;39735;51.432;5.482;2023-08-12T16:04:08;4.13;;;1.13;;
53833;SDS011;39735;51.432;5.482;2023-08-12T16:07:32;8.13;;;2.03;;
53833;SDS011;39735;51.432;5.482;2023-08-12T16:10:56;13.05;;;5.47;;
53833;SDS011;39735;51.432;5.482;2023-08-12T16:14:03;7.90;;;2.35;;
53833;SDS011;39735;51.432;5.482;2023-08-12T16:17:27;5.95;;;1.95;;
53833;SDS011;39735;51.432;5.482;2023-08-12T16:20:51;9.38;;;1.92;;
53833;SDS011;39735;51.432;5.482;2023-08-12T16:24:15;7.43;;;1.90;;
53833;SDS011;39735;51.432;5.482;2023-08-12T16:27:39;8.55;;;2.33;;
53833;SDS011;39735;51.432;5.482;2023-08-12T16:31:03;19.38;;;2.70;;
53833;SDS011;39735;51.432;5.482;2023-08-12T16:34:27;5.38;;;1.25;;
53833;SDS011;39735;51.432;5.482;2023-08-12T16:37:51;17.08;;;2.17;;
53833;SDS011;39735;51.432;5.482;2023-08-12T16:41:15;5.90;;;1.75;;
53833;SDS011;39735;51.432;5.482;2023-08-12T16:44:39;16.85;;;2.65;;
53833;SDS011;39735;51.432;5.482;2023-08-12T16:48:03;12.95;;;2.70;;
53833;SDS011;39735;51.432;5.482;2023-08-12T16:51:27;29.50;;;3.10;;
53833;SDS011;39735;51.432;5.482;2023-08-12T16:54:51;22.05;;;3.88;;
53833;SDS011;39735;51.432;5.482;2023-08-12T16:58:15;5.45;;;2.05;;
53833;SDS011;39735;51.432;5.482;2023-08-12T17:01:39;28.77;;;6.50;;
53833;SDS011;39735;51.432;5.482;2023-08-12T17:05:03;8.30;;;2.80;;
53833;SDS011;39735;51.432;5.482;2023-08-12T17:08:14;15.63;;;2.25;;
53833;SDS011;39735;51.432;5.482;2023-08-12T17:11:38;11.77;;;4.07;;
53833;SDS011;39735;51.432;5.482;2023-08-12T17:14:48;8.02;;;4.68;;
53833;SDS011;39735;51.432;5.482;2023-08-12T17:18:12;14.52;;;2.92;;
53833;SDS011;39735;51.432;5.482;2023-08-12T17:21:36;10.18;;;2.55;;
53833;SDS011;39735;51.432;5.482;2023-08-12T17:25:00;9.27;;;2.50;;
53833;SDS011;39735;51.432;5.482;2023-08-12T17:28:24;22.15;;;3.50;;
53833;SDS011;39735;51.432;5.482;2023-08-12T17:31:48;20.08;;;2.22;;
53833;SDS011;39735;51.432;5.482;2023-08-12T17:35:12;27.88;;;8.52;;
53833;SDS011;39735;51.432;5.482;2023-08-12T17:38:21;22.60;;;2.95;;
53833;SDS011;39735;51.432;5.482;2023-08-12T17:41:45;13.77;;;3.08;;
53833;SDS011;39735;51.432;5.482;2023-08-12T17:45:08;36.35;;;5.38;;
53833;SDS011;39735;51.432;5.482;2023-08-12T17:48:32;15.25;;;2.95;;
53833;SDS011;39735;51.432;5.482;2023-08-12T17:51:55;11.85;;;2.28;;
53833;SDS011;39735;51.432;5.482;2023-08-12T17:55:19;21.42;;;3.20;;
53833;SDS011;39735;51.432;5.482;2023-08-12T17:58:44;20.00;;;3.78;;
53833;SDS011;39735;51.432;5.482;2023-08-12T18:02:08;13.65;;;2.40;;
53833;SDS011;39735;51.432;5.482;2023-08-12T18:05:31;19.77;;;4.10;;
53833;SDS011;39735;51.432;5.482;2023-08-12T18:08:55;12.50;;;2.45;;
53833;SDS011;39735;51.432;5.482;2023-08-12T18:12:19;10.80;;;2.88;;
53833;SDS011;39735;51.432;5.482;2023-08-12T18:15:43;11.18;;;3.80;;
53833;SDS011;39735;51.432;5.482;2023-08-12T18:19:07;12.43;;;2.90;;
53833;SDS011;39735;51.432;5.482;2023-08-12T18:22:17;19.15;;;3.88;;
53833;SDS011;39735;51.432;5.482;2023-08-12T18:25:39;23.35;;;3.17;;
53833;SDS011;39735;51.432;5.482;2023-08-12T18:29:03;11.32;;;2.83;;
53833;SDS011;39735;51.432;5.482;2023-08-12T18:32:26;14.40;;;2.65;;
53833;SDS011;39735;51.432;5.482;2023-08-12T18:35:50;18.40;;;3.95;;
53833;SDS011;39735;51.432;5.482;2023-08-12T18:39:13;6.93;;;3.00;;
53833;SDS011;39735;51.432;5.482;2023-08-12T18:42:37;11.40;;;2.60;;
53833;SDS011;39735;51.432;5.482;2023-08-12T18:46:01;15.85;;;3.45;;
53833;SDS011;39735;51.432;5.482;2023-08-12T18:49:25;9.30;;;3.03;;
53833;SDS011;39735;51.432;5.482;2023-08-12T18:52:49;7.20;;;2.85;;
53833;SDS011;39735;51.432;5.482;2023-08-12T18:56:13;10.05;;;3.45;;
53833;SDS011;39735;51.432;5.482;2023-08-12T18:59:37;19.02;;;4.05;;
53833;SDS011;39735;51.432;5.482;2023-08-12T19:03:01;46.17;;;5.28;;
53833;SDS011;39735;51.432;5.482;2023-08-12T19:06:25;9.38;;;2.63;;
53833;SDS011;39735;51.432;5.482;2023-08-12T19:09:48;28.05;;;4.45;;
53833;SDS011;39735;51.432;5.482;2023-08-12T19:13:17;13.25;;;2.42;;
53833;SDS011;39735;51.432;5.482;2023-08-12T19:15:43;12.32;;;2.83;;
53833;SDS011;39735;51.432;5.482;2023-08-12T19:18:23;15.55;;;2.95;;
53833;SDS011;39735;51.432;5.482;2023-08-12T19:21:47;16.80;;;4.95;;
53833;SDS011;39735;51.432;5.482;2023-08-12T19:25:11;31.73;;;3.40;;
53833;SDS011;39735;51.432;5.482;2023-08-12T19:31:02;14.23;;;3.53;;
53833;SDS011;39735;51.432;5.482;2023-08-12T19:34:26;8.98;;;2.90;;
53833;SDS011;39735;51.432;5.482;2023-08-12T19:37:53;11.70;;;4.05;;
53833;SDS011;39735;51.432;5.482;2023-08-12T19:41:18;11.80;;;3.75;;
53833;SDS011;39735;51.432;5.482;2023-08-12T19:44:28;23.10;;;4.13;;
53833;SDS011;39735;51.432;5.482;2023-08-12T19:47:03;14.18;;;5.50;;
53833;SDS011;39735;51.432;5.482;2023-08-12T19:50:26;28.40;;;3.28;;
53833;SDS011;39735;51.432;5.482;2023-08-12T19:53:50;31.25;;;4.60;;
53833;SDS011;39735;51.432;5.482;2023-08-12T19:57:14;22.05;;;3.45;;
53833;SDS011;39735;51.432;5.482;2023-08-12T20:00:39;16.95;;;4.00;;
53833;SDS011;39735;51.432;5.482;2023-08-12T20:04:03;21.10;;;3.60;;
53833;SDS011;39735;51.432;5.482;2023-08-12T20:06:40;17.38;;;5.05;;
53833;SDS011;39735;51.432;5.482;2023-08-12T20:09:42;17.85;;;4.35;;
53833;SDS011;39735;51.432;5.482;2023-08-12T20:12:39;13.05;;;3.55;;
53833;SDS011;39735;51.432;5.482;2023-08-12T20:15:26;22.58;;;4.10;;
53833;SDS011;39735;51.432;5.482;2023-08-12T20:18:50;11.75;;;3.13;;
53833;SDS011;39735;51.432;5.482;2023-08-12T20:22:14;4.18;;;2.17;;
53833;SDS011;39735;51.432;5.482;2023-08-12T20:25:38;18.80;;;3.25;;